sensor_id;sensor_type;location;lat;lon;timestamp;pressure;altitude;pressure_sealevel;temperature;humidity
82262;BME280;71861;52.364;6.580;2024-02-15T04:02:01;101670.31;;;11.51;100.00
82262;BME280;71861;52.364;6.580;2024-02-15T04:04:28;101666.09;;;11.50;100.00
82262;BME280;71861;52.364;6.580;2024-02-15T04:06:55;101660.88;;;11.50;100.00
82262;BME280;71861;52.364;6.580;2024-02-15T04:09:21;101666.88;;;11.51;100.00
82262;BME280;71861;52.364;6.580;2024-02-15T04:11:47;101667.44;;;11.54;100.00
82262;BME280;71861;52.364;6.580;2024-02-15T04:14:16;101662.81;;;11.48;100.00
82262;BME280;71861;52.364;6.580;2024-02-15T04:16:43;101657.59;;;11.48;100.00
82262;BME280;71861;52.364;6.580;2024-02-15T04:19:08;101658.69;;;11.46;100.00
82262;BME280;71861;52.364;6.580;2024-02-15T04:21:34;101658.69;;;11.46;100.00
82262;BME280;71861;52.364;6.580;2024-02-15T04:23:59;101664.03;;;11.44;100.00
82262;BME280;71861;52.364;6.580;2024-02-15T04:26:24;101646.78;;;11.43;100.00
82262;BME280;71861;52.364;6.580;2024-02-15T04:28:55;101656.50;;;11.41;100.00
82262;BME280;71861;52.364;6.580;2024-02-15T04:31:20;101647.06;;;11.40;100.00
82262;BME280;71861;52.364;6.580;2024-02-15T04:33:54;101647.22;;;11.39;100.00
82262;BME280;71861;52.364;6.580;2024-02-15T04:36:19;101648.34;;;11.36;100.00
82262;BME280;71861;52.364;6.580;2024-02-15T04:38:49;101641.47;;;11.35;100.00
82262;BME280;71861;52.364;6.580;2024-02-15T04:41:16;101647.50;;;11.36;100.00
82262;BME280;71861;52.364;6.580;2024-02-15T04:43:46;101649.56;;;11.32;100.00
82262;BME280;71861;52.364;6.580;2024-02-15T04:46:12;101639.44;;;11.29;100.00
82262;BME280;71861;52.364;6.580;2024-02-15T04:48:39;101643.72;;;11.30;100.00
82262;BME280;71861;52.364;6.580;2024-02-15T04:51:07;101636.84;;;11.29;100.00
82262;BME280;71861;52.364;6.580;2024-02-15T04:53:32;101641.09;;;11.30;100.00
82262;BME280;71861;52.364;6.580;2024-02-15T04:55:58;101642.06;;;11.29;100.00
82262;BME280;71861;52.364;6.580;2024-02-15T04:58:26;101644.66;;;11.29;100.00
82262;BME280;71861;52.364;6.580;2024-02-15T05:00:54;101638.75;;;11.27;100.00
82262;BME280;71861;52.364;6.580;2024-02-15T05:03:23;101631.94;;;11.26;100.00
82262;BME280;71861;52.364;6.580;2024-02-15T05:05:49;101632.06;;;11.25;100.00
82262;BME280;71861;52.364;6.580;2024-02-15T05:08:14;101632.22;;;11.23;100.00
82262;BME280;71861;52.364;6.580;2024-02-15T05:10:39;101628.13;;;11.21;100.00
82262;BME280;71861;52.364;6.580;2024-02-15T05:13:05;101629.91;;;11.20;100.00
82262;BME280;71861;52.364;6.580;2024-02-15T05:15:30;101625.13;;;11.16;100.00
82262;BME280;71861;52.364;6.580;2024-02-15T05:17:56;101627.88;;;11.14;100.00
82262;BME280;71861;52.364;6.580;2024-02-15T05:20:21;101617.63;;;11.13;100.00
82262;BME280;71861;52.364;6.580;2024-02-15T05:22:46;101607.34;;;11.11;100.00
82262;BME280;71861;52.364;6.580;2024-02-15T05:25:12;101604.06;;;11.09;100.00
82262;BME280;71861;52.364;6.580;2024-02-15T05:27:38;101608.97;;;11.12;100.00
82262;BME280;71861;52.364;6.580;2024-02-15T05:30:04;101591.50;;;11.05;100.00
82262;BME280;71861;52.364;6.580;2024-02-15T05:32:35;101595.22;;;11.02;100.00
82262;BME280;71861;52.364;6.580;2024-02-15T05:35:09;101589.31;;;11.00;100.00
82262;BME280;71861;52.364;6.580;2024-02-15T05:37:36;101585.09;;;10.99;100.00
82262;BME280;71861;52.364;6.580;2024-02-15T05:40:01;101563.59;;;10.97;100.00
82262;BME280;71861;52.364;6.580;2024-02-15T05:42:26;101562.91;;;10.95;100.00
82262;BME280;71861;52.364;6.580;2024-02-15T05:44:52;101560.44;;;10.94;100.00
82262;BME280;71861;52.364;6.580;2024-02-15T05:47:17;101558.69;;;10.94;100.00
82262;BME280;71861;52.364;6.580;2024-02-15T05:49:43;101556.09;;;10.94;100.00
82262;BME280;71861;52.364;6.580;2024-02-15T05:52:10;101555.25;;;10.94;100.00
82262;BME280;71861;52.364;6.580;2024-02-15T05:54:35;101557.72;;;10.95;100.00
82262;BME280;71861;52.364;6.580;2024-02-15T05:57:02;101559.38;;;10.96;100.00
82262;BME280;71861;52.364;6.580;2024-02-15T05:59:27;101568.81;;;10.97;100.00
82262;BME280;71861;52.364;6.580;2024-02-15T06:01:54;101574.00;;;10.97;100.00
82262;BME280;71861;52.364;6.580;2024-02-15T06:04:19;101569.91;;;10.95;100.00
82262;BME280;71861;52.364;6.580;2024-02-15T06:06:44;101575.78;;;10.97;100.00
82262;BME280;71861;52.364;6.580;2024-02-15T06:09:13;101585.38;;;10.96;100.00
82262;BME280;71861;52.364;6.580;2024-02-15T06:11:38;101584.41;;;10.97;100.00
82262;BME280;71861;52.364;6.580;2024-02-15T06:14:04;101586.03;;;10.98;100.00
82262;BME280;71861;52.364;6.580;2024-02-15T06:16:31;101591.91;;;11.00;100.00
82262;BME280;71861;52.364;6.580;2024-02-15T06:18:56;101579.75;;;11.01;100.00
82262;BME280;71861;52.364;6.580;2024-02-15T06:21:22;101585.59;;;11.03;100.00
82262;BME280;71861;52.364;6.580;2024-02-15T06:23:48;101583.00;;;11.03;100.00
82262;BME280;71861;52.364;6.580;2024-02-15T06:26:15;101573.44;;;11.03;100.00
82262;BME280;71861;52.364;6.580;2024-02-15T06:28:40;101564.66;;;11.04;100.00
82262;BME280;71861;52.364;6.580;2024-02-15T06:31:24;101565.34;;;11.06;100.00
82262;BME280;71861;52.364;6.580;2024-02-15T06:34:08;101549.88;;;11.05;100.00
82262;BME280;71861;52.364;6.580;2024-02-15T06:36:53;101526.31;;;11.06;100.00
82262;BME280;71861;52.364;6.580;2024-02-15T06:39:37;101536.03;;;11.04;100.00
82262;BME280;71861;52.364;6.580;2024-02-15T06:42:12;101535.25;;;11.04;100.00
82262;BME280;71861;52.364;6.580;2024-02-15T06:44:42;101532.66;;;11.04;100.00
82262;BME280;71861;52.364;6.580;2024-02-15T06:47:07;101535.38;;;11.02;100.00
82262;BME280;71861;52.364;6.580;2024-02-15T06:49:36;101539.63;;;11.03;100.00
82262;BME280;71861;52.364;6.580;2024-02-15T06:52:01;101544.13;;;11.01;100.00
82262;BME280;71861;52.364;6.580;2024-02-15T06:54:28;101543.34;;;11.01;100.00
82262;BME280;71861;52.364;6.580;2024-02-15T06:56:53;101550.16;;;11.02;100.00
82262;BME280;71861;52.364;6.580;2024-02-15T06:59:20;101552.75;;;11.02;100.00
82262;BME280;71861;52.364;6.580;2024-02-15T07:01:48;101554.53;;;11.01;100.00
82262;BME280;71861;52.364;6.580;2024-02-15T07:04:14;101556.47;;;10.99;100.00
82262;BME280;71861;52.364;6.580;2024-02-15T07:06:39;101545.78;;;11.02;100.00
82262;BME280;71861;52.364;6.580;2024-02-15T07:09:05;101555.38;;;11.02;100.00
82262;BME280;71861;52.364;6.580;2024-02-15T07:11:35;101548.41;;;11.02;100.00
82262;BME280;71861;52.364;6.580;2024-02-15T07:14:01;101543.19;;;11.02;100.00
82262;BME280;71861;52.364;6.580;2024-02-15T07:16:27;101542.22;;;11.03;100.00
82262;BME280;71861;52.364;6.580;2024-02-15T07:18:52;101553.44;;;11.04;100.00
82262;BME280;71861;52.364;6.580;2024-02-15T07:21:17;101543.84;;;11.04;100.00
82262;BME280;71861;52.364;6.580;2024-02-15T07:23:46;101545.50;;;11.05;100.00
82262;BME280;71861;52.364;6.580;2024-02-15T07:26:11;101546.16;;;11.07;100.00
82262;BME280;71861;52.364;6.580;2024-02-15T07:28:37;101536.72;;;11.06;100.00
82262;BME280;71861;52.364;6.580;2024-02-15T07:31:03;101558.22;;;11.08;100.00
82262;BME280;71861;52.364;6.580;2024-02-15T07:33:29;101553.81;;;11.09;100.00
82262;BME280;71861;52.364;6.580;2024-02-15T07:35:54;101552.03;;;11.09;100.00
82262;BME280;71861;52.364;6.580;2024-02-15T07:38:21;101545.06;;;11.10;100.00
82262;BME280;71861;52.364;6.580;2024-02-15T07:40:48;101547.53;;;11.11;100.00
82262;BME280;71861;52.364;6.580;2024-02-15T07:43:14;101548.22;;;11.13;100.00
82262;BME280;71861;52.364;6.580;2024-02-15T07:45:39;101542.03;;;11.14;100.00
82262;BME280;71861;52.364;6.580;2024-02-15T07:48:04;101544.63;;;11.14;100.00
82262;BME280;71861;52.364;6.580;2024-02-15T07:50:30;101539.28;;;11.16;100.00
82262;BME280;71861;52.364;6.580;2024-02-15T07:52:56;101539.16;;;11.17;100.00
82262;BME280;71861;52.364;6.580;2024-02-15T07:55:21;101540.91;;;11.17;100.00
82262;BME280;71861;52.364;6.580;2024-02-15T07:57:46;101555.28;;;11.21;100.00
82262;BME280;71861;52.364;6.580;2024-02-15T08:00:13;101561.28;;;11.21;100.00
82262;BME280;71861;52.364;6.580;2024-02-15T08:02:42;101546.50;;;11.22;100.00
82262;BME280;71861;52.364;6.580;2024-02-15T08:05:07;101562.66;;;11.25;100.00
82262;BME280;71861;52.364;6.580;2024-02-15T08:07:37;101572.09;;;11.26;100.00
82262;BME280;71861;52.364;6.580;2024-02-15T08:10:03;101574.56;;;11.28;100.00
82262;BME280;71861;52.364;6.580;2024-02-15T08:12:29;101573.56;;;11.29;100.00
82262;BME280;71861;52.364;6.580;2024-02-15T08:14:55;101578.66;;;11.30;100.00
82262;BME280;71861;52.364;6.580;2024-02-15T08:17:20;101578.53;;;11.32;100.00
82262;BME280;71861;52.364;6.580;2024-02-15T08:19:46;101578.53;;;11.32;100.00
82262;BME280;71861;52.364;6.580;2024-02-15T08:22:11;101574.94;;;11.33;100.00
82262;BME280;71861;52.364;6.580;2024-02-15T08:24:36;101582.75;;;11.33;100.00
82262;BME280;71861;52.364;6.580;2024-02-15T08:27:02;101579.31;;;11.32;100.00
82262;BME280;71861;52.364;6.580;2024-02-15T08:29:29;101588.09;;;11.31;100.00
82262;BME280;71861;52.364;6.580;2024-02-15T08:31:55;101587.41;;;11.29;100.00
82262;BME280;71861;52.364;6.580;2024-02-15T08:34:20;101596.59;;;11.33;100.00
82262;BME280;71861;52.364;6.580;2024-02-15T08:36:45;101591.69;;;11.30;100.00
82262;BME280;71861;52.364;6.580;2024-02-15T08:39:13;101586.72;;;11.27;100.00
82262;BME280;71861;52.364;6.580;2024-02-15T08:41:41;101557.31;;;11.27;100.00
82262;BME280;71861;52.364;6.580;2024-02-15T08:44:07;101557.47;;;11.25;100.00
82262;BME280;71861;52.364;6.580;2024-02-15T08:46:34;101548.13;;;11.23;100.00
82262;BME280;71861;52.364;6.580;2024-02-15T08:49:01;101547.34;;;11.22;100.00
82262;BME280;71861;52.364;6.580;2024-02-15T08:51:26;101530.38;;;11.18;100.00
82262;BME280;71861;52.364;6.580;2024-02-15T08:53:52;101532.03;;;11.19;100.00
82262;BME280;71861;52.364;6.580;2024-02-15T08:56:17;101521.63;;;11.19;100.00
82262;BME280;71861;52.364;6.580;2024-02-15T08:58:42;101489.72;;;11.17;100.00
82262;BME280;71861;52.364;6.580;2024-02-15T09:01:08;101466.91;;;11.11;100.00
82262;BME280;71861;52.364;6.580;2024-02-15T09:03:33;101475.38;;;11.13;100.00
82262;BME280;71861;52.364;6.580;2024-02-15T09:05:59;101485.78;;;11.13;100.00
82262;BME280;71861;52.364;6.580;2024-02-15T09:08:28;101506.59;;;11.13;100.00
82262;BME280;71861;52.364;6.580;2024-02-15T09:10:55;101516.84;;;11.15;100.00
82262;BME280;71861;52.364;6.580;2024-02-15T09:13:20;101514.09;;;11.16;100.00
82262;BME280;71861;52.364;6.580;2024-02-15T09:15:47;101512.16;;;11.18;100.00
82262;BME280;71861;52.364;6.580;2024-02-15T09:18:13;101514.47;;;11.21;100.00
82262;BME280;71861;52.364;6.580;2024-02-15T09:20:38;101528.97;;;11.24;100.00
82262;BME280;71861;52.364;6.580;2024-02-15T09:23:09;101534.97;;;11.24;100.00
82262;BME280;71861;52.364;6.580;2024-02-15T09:25:40;101530.75;;;11.23;100.00
82262;BME280;71861;52.364;6.580;2024-02-15T09:28:08;101544.84;;;11.30;100.00
82262;BME280;71861;52.364;6.580;2024-02-15T09:30:33;101529.78;;;11.24;100.00
82262;BME280;71861;52.364;6.580;2024-02-15T09:33:00;101548.81;;;11.25;100.00
82262;BME280;71861;52.364;6.580;2024-02-15T09:35:26;101550.59;;;11.24;100.00
82262;BME280;71861;52.364;6.580;2024-02-15T09:37:51;101532.38;;;11.24;100.00
82262;BME280;71861;52.364;6.580;2024-02-15T09:40:18;101529.78;;;11.24;100.00
82262;BME280;71861;52.364;6.580;2024-02-15T09:42:44;101526.53;;;11.22;100.00
82262;BME280;71861;52.364;6.580;2024-02-15T09:45:11;101540.88;;;11.26;100.00
82262;BME280;71861;52.364;6.580;2024-02-15T09:47:41;101536.66;;;11.25;100.00
82262;BME280;71861;52.364;6.580;2024-02-15T09:50:09;101533.06;;;11.26;100.00
82262;BME280;71861;52.364;6.580;2024-02-15T09:52:39;101533.06;;;11.26;100.00
82262;BME280;71861;52.364;6.580;2024-02-15T09:55:06;101531.28;;;11.27;100.00
82262;BME280;71861;52.364;6.580;2024-02-15T09:57:35;101525.94;;;11.28;100.00
82262;BME280;71861;52.364;6.580;2024-02-15T10:00:01;101538.81;;;11.30;100.00
82262;BME280;71861;52.364;6.580;2024-02-15T10:02:29;101530.84;;;11.31;100.00
82262;BME280;71861;52.364;6.580;2024-02-15T10:04:56;101532.47;;;11.32;100.00
82262;BME280;71861;52.364;6.580;2024-02-15T10:07:24;101528.94;;;11.33;100.00
82262;BME280;71861;52.364;6.580;2024-02-15T10:09:52;101539.69;;;11.38;100.00
82262;BME280;71861;52.364;6.580;2024-02-15T10:12:17;101531.59;;;11.41;100.00
82262;BME280;71861;52.364;6.580;2024-02-15T10:14:51;101533.91;;;11.44;100.00
82262;BME280;71861;52.364;6.580;2024-02-15T10:17:19;101528.56;;;11.46;100.00
82262;BME280;71861;52.364;6.580;2024-02-15T10:19:44;101543.06;;;11.48;100.00
82262;BME280;71861;52.364;6.580;2024-02-15T10:22:12;101538.56;;;11.50;100.00
82262;BME280;71861;52.364;6.580;2024-02-15T10:24:40;101539.22;;;11.52;100.00
82262;BME280;71861;52.364;6.580;2024-02-15T10:27:06;101544.94;;;11.56;100.00
82262;BME280;71861;52.364;6.580;2024-02-15T10:29:32;101549.03;;;11.58;100.00
82262;BME280;71861;52.364;6.580;2024-02-15T10:32:00;101545.47;;;11.59;100.00
82262;BME280;71861;52.364;6.580;2024-02-15T10:34:25;101547.09;;;11.60;100.00
82262;BME280;71861;52.364;6.580;2024-02-15T10:36:55;101546.13;;;11.61;100.00
82262;BME280;71861;52.364;6.580;2024-02-15T10:39:23;101548.72;;;11.61;100.00
82262;BME280;71861;52.364;6.580;2024-02-15T10:41:53;101552.06;;;11.63;100.00
82262;BME280;71861;52.364;6.580;2024-02-15T10:44:23;101540.00;;;11.62;100.00
82262;BME280;71861;52.364;6.580;2024-02-15T10:46:52;101546.00;;;11.63;100.00
82262;BME280;71861;52.364;6.580;2024-02-15T10:49:22;101544.34;;;11.62;100.00
82262;BME280;71861;52.364;6.580;2024-02-15T10:51:59;101539.16;;;11.62;100.00
82262;BME280;71861;52.364;6.580;2024-02-15T10:54:52;101539.72;;;11.65;100.00
82262;BME280;71861;52.364;6.580;2024-02-15T10:57:21;101536.13;;;11.66;100.00
82262;BME280;71861;52.364;6.580;2024-02-15T10:59:56;101527.63;;;11.64;100.00
82262;BME280;71861;52.364;6.580;2024-02-15T11:02:42;101532.41;;;11.69;100.00
82262;BME280;71861;52.364;6.580;2024-02-15T11:05:09;101546.09;;;11.71;100.00
82262;BME280;71861;52.364;6.580;2024-02-15T11:07:38;101533.91;;;11.71;100.00
82262;BME280;71861;52.364;6.580;2024-02-15T11:10:05;101540.75;;;11.72;100.00
82262;BME280;71861;52.364;6.580;2024-02-15T11:12:36;101537.19;;;11.73;100.00
82262;BME280;71861;52.364;6.580;2024-02-15T11:15:02;101539.66;;;11.75;100.00
82262;BME280;71861;52.364;6.580;2024-02-15T11:20:09;101531.47;;;11.70;100.00
82262;BME280;71861;52.364;6.580;2024-02-15T11:22:37;101539.13;;;11.71;100.00
82262;BME280;71861;52.364;6.580;2024-02-15T11:25:03;101528.41;;;11.74;100.00
82262;BME280;71861;52.364;6.580;2024-02-15T11:27:37;101516.88;;;11.77;100.00
82262;BME280;71861;52.364;6.580;2024-02-15T11:30:05;101508.31;;;11.85;100.00
82262;BME280;71861;52.364;6.580;2024-02-15T11:32:46;101508.53;;;11.91;100.00
82262;BME280;71861;52.364;6.580;2024-02-15T11:37:51;101515.75;;;11.97;100.00
82262;BME280;71861;52.364;6.580;2024-02-15T11:42:56;101506.31;;;11.96;100.00
82262;BME280;71861;52.364;6.580;2024-02-15T11:45:25;101496.03;;;11.95;100.00
82262;BME280;71861;52.364;6.580;2024-02-15T11:47:53;101502.63;;;12.07;100.00
82262;BME280;71861;52.364;6.580;2024-02-15T11:50:20;101504.78;;;12.11;100.00
82262;BME280;71861;52.364;6.580;2024-02-15T11:52:50;101498.63;;;12.12;100.00
82262;BME280;71861;52.364;6.580;2024-02-15T11:55:22;101507.75;;;12.16;100.00
82262;BME280;71861;52.364;6.580;2024-02-15T12:00:26;101491.91;;;12.10;100.00
82262;BME280;71861;52.364;6.580;2024-02-15T12:03:12;101496.81;;;12.13;100.00
82262;BME280;71861;52.364;6.580;2024-02-15T12:05:57;101489.47;;;12.08;100.00
82262;BME280;71861;52.364;6.580;2024-02-15T12:08:44;101492.28;;;12.15;100.00
82262;BME280;71861;52.364;6.580;2024-02-15T12:11:28;101482.69;;;12.15;100.00
82262;BME280;71861;52.364;6.580;2024-02-15T12:14:14;101484.16;;;12.18;100.00
82262;BME280;71861;52.364;6.580;2024-02-15T12:17:07;101477.81;;;12.20;100.00
82262;BME280;71861;52.364;6.580;2024-02-15T12:19:52;101475.06;;;12.22;100.00
82262;BME280;71861;52.364;6.580;2024-02-15T12:22:21;101470.50;;;12.24;100.00
82262;BME280;71861;52.364;6.580;2024-02-15T12:24:55;101472.81;;;12.27;100.00
82262;BME280;71861;52.364;6.580;2024-02-15T12:27:21;101465.66;;;12.29;100.00
82262;BME280;71861;52.364;6.580;2024-02-15T12:29:56;101460.47;;;12.29;100.00
82262;BME280;71861;52.364;6.580;2024-02-15T12:32:26;101469.22;;;12.28;100.00
82262;BME280;71861;52.364;6.580;2024-02-15T12:34:53;101473.84;;;12.34;100.00
82262;BME280;71861;52.364;6.580;2024-02-15T12:37:20;101455.88;;;12.31;100.00
82262;BME280;71861;52.364;6.580;2024-02-15T12:39:49;101459.84;;;12.35;100.00
82262;BME280;71861;52.364;6.580;2024-02-15T12:42:16;101462.28;;;12.36;100.00
82262;BME280;71861;52.364;6.580;2024-02-15T12:44:46;101455.31;;;12.37;100.00
82262;BME280;71861;52.364;6.580;2024-02-15T12:47:22;101461.16;;;12.39;100.00
82262;BME280;71861;52.364;6.580;2024-02-15T12:49:48;101456.31;;;12.44;100.00
82262;BME280;71861;52.364;6.580;2024-02-15T12:52:36;101447.34;;;12.46;100.00
82262;BME280;71861;52.364;6.580;2024-02-15T12:55:10;101455.38;;;12.53;100.00
82262;BME280;71861;52.364;6.580;2024-02-15T12:57:35;101457.66;;;12.56;100.00
82262;BME280;71861;52.364;6.580;2024-02-15T13:00:01;101450.72;;;12.64;100.00
82262;BME280;71861;52.364;6.580;2024-02-15T13:02:36;101447.31;;;12.72;100.00
82262;BME280;71861;52.364;6.580;2024-02-15T13:05:02;101450.28;;;12.77;100.00
82262;BME280;71861;52.364;6.580;2024-02-15T13:07:28;101451.59;;;12.81;100.00
82262;BME280;71861;52.364;6.580;2024-02-15T13:09:53;101452.09;;;12.84;100.00
82262;BME280;71861;52.364;6.580;2024-02-15T13:12:20;101449.34;;;12.86;100.00
82262;BME280;71861;52.364;6.580;2024-02-15T13:14:45;101455.66;;;12.83;100.00
82262;BME280;71861;52.364;6.580;2024-02-15T13:17:11;101449.81;;;12.89;100.00
82262;BME280;71861;52.364;6.580;2024-02-15T13:19:36;101437.13;;;12.94;100.00
82262;BME280;71861;52.364;6.580;2024-02-15T13:22:01;101446.16;;;13.00;100.00
82262;BME280;71861;52.364;6.580;2024-02-15T13:24:26;101446.16;;;13.00;100.00
82262;BME280;71861;52.364;6.580;2024-02-15T13:26:52;101438.31;;;13.08;100.00
82262;BME280;71861;52.364;6.580;2024-02-15T13:29:17;101440.63;;;13.11;100.00
82262;BME280;71861;52.364;6.580;2024-02-15T13:31:42;101440.28;;;13.14;100.00
82262;BME280;71861;52.364;6.580;2024-02-15T13:34:09;101435.75;;;13.16;100.00
82262;BME280;71861;52.364;6.580;2024-02-15T13:36:35;101439.69;;;13.20;100.00
82262;BME280;71861;52.364;6.580;2024-02-15T13:39:01;101428.91;;;13.23;100.00
82262;BME280;71861;52.364;6.580;2024-02-15T13:41:29;101425.31;;;13.24;100.00
82262;BME280;71861;52.364;6.580;2024-02-15T13:43:55;101419.94;;;13.25;100.00
82262;BME280;71861;52.364;6.580;2024-02-15T13:46:20;101411.13;;;13.26;100.00
82262;BME280;71861;52.364;6.580;2024-02-15T13:48:45;101391.06;;;13.27;100.00
82262;BME280;71861;52.364;6.580;2024-02-15T13:51:11;101397.59;;;13.31;100.00
82262;BME280;71861;52.364;6.580;2024-02-15T13:53:36;101396.47;;;13.33;100.00
82262;BME280;71861;52.364;6.580;2024-02-15T13:56:02;101401.38;;;13.36;100.00
82262;BME280;71861;52.364;6.580;2024-02-15T13:58:28;101403.66;;;13.39;100.00
82262;BME280;71861;52.364;6.580;2024-02-15T14:00:53;101399.88;;;13.42;100.00
82262;BME280;71861;52.364;6.580;2024-02-15T14:03:18;101392.72;;;13.44;100.00
82262;BME280;71861;52.364;6.580;2024-02-15T14:05:47;101378.53;;;13.38;100.00
82262;BME280;71861;52.364;6.580;2024-02-15T14:08:14;101388.16;;;13.46;100.00
82262;BME280;71861;52.364;6.580;2024-02-15T14:10:40;101394.00;;;13.48;100.00
82262;BME280;71861;52.364;6.580;2024-02-15T14:13:06;101392.38;;;13.47;100.00
82262;BME280;71861;52.364;6.580;2024-02-15T14:15:33;101396.78;;;13.47;100.00
82262;BME280;71861;52.364;6.580;2024-02-15T14:18:06;101392.72;;;13.44;100.00
82262;BME280;71861;52.364;6.580;2024-02-15T14:20:31;101391.09;;;13.43;100.00
82262;BME280;71861;52.364;6.580;2024-02-15T14:22:57;101391.25;;;13.42;100.00
82262;BME280;71861;52.364;6.580;2024-02-15T14:25:23;101382.94;;;13.38;100.00
82262;BME280;71861;52.364;6.580;2024-02-15T14:27:50;101382.75;;;13.39;100.00
82262;BME280;71861;52.364;6.580;2024-02-15T14:30:17;101376.09;;;13.37;100.00
82262;BME280;71861;52.364;6.580;2024-02-15T14:33:01;101371.34;;;13.40;100.00
82262;BME280;71861;52.364;6.580;2024-02-15T14:35:33;101371.84;;;13.44;100.00
82262;BME280;71861;52.364;6.580;2024-02-15T14:38:08;101371.19;;;13.50;100.00
82262;BME280;71861;52.364;6.580;2024-02-15T14:40:37;101367.25;;;13.54;100.00
82262;BME280;71861;52.364;6.580;2024-02-15T14:43:04;101360.56;;;13.60;100.00
82262;BME280;71861;52.364;6.580;2024-02-15T14:45:39;101362.69;;;13.64;100.00
82262;BME280;71861;52.364;6.580;2024-02-15T14:48:06;101369.19;;;13.68;100.00
82262;BME280;71861;52.364;6.580;2024-02-15T14:50:34;101366.25;;;13.71;100.00
82262;BME280;71861;52.364;6.580;2024-02-15T14:53:00;101358.41;;;13.71;100.00
82262;BME280;71861;52.364;6.580;2024-02-15T14:55:25;101358.09;;;13.74;100.00
82262;BME280;71861;52.364;6.580;2024-02-15T14:57:50;101351.41;;;13.80;100.00
82262;BME280;71861;52.364;6.580;2024-02-15T15:00:16;101362.97;;;13.85;100.00
82262;BME280;71861;52.364;6.580;2024-02-15T15:02:47;101355.47;;;13.90;100.00
82262;BME280;71861;52.364;6.580;2024-02-15T15:05:13;101347.78;;;13.97;100.00
82262;BME280;71861;52.364;6.580;2024-02-15T15:07:58;101348.09;;;14.02;100.00
82262;BME280;71861;52.364;6.580;2024-02-15T15:10:43;101362.63;;;14.04;100.00
82262;BME280;71861;52.364;6.580;2024-02-15T15:13:28;101353.50;;;14.00;100.00
82262;BME280;71861;52.364;6.580;2024-02-15T15:15:53;101350.56;;;13.95;100.00
82262;BME280;71861;52.364;6.580;2024-02-15T15:18:19;101347.63;;;13.90;100.00
82262;BME280;71861;52.364;6.580;2024-02-15T15:20:44;101341.44;;;13.83;100.00
82262;BME280;71861;52.364;6.580;2024-02-15T15:23:09;101346.66;;;13.83;100.00
82262;BME280;71861;52.364;6.580;2024-02-15T15:25:36;101344.56;;;13.79;100.00
82262;BME280;71861;52.364;6.580;2024-02-15T15:28:04;101343.25;;;13.75;100.00
82262;BME280;71861;52.364;6.580;2024-02-15T15:30:30;101344.72;;;13.69;100.00
82262;BME280;71861;52.364;6.580;2024-02-15T15:32:58;101347.69;;;13.66;100.00
82262;BME280;71861;52.364;6.580;2024-02-15T15:35:26;101339.19;;;13.56;100.00
82262;BME280;71861;52.364;6.580;2024-02-15T15:37:52;101356.97;;;13.61;100.00
82262;BME280;71861;52.364;6.580;2024-02-15T15:40:18;101349.31;;;13.59;100.00
82262;BME280;71861;52.364;6.580;2024-02-15T15:42:43;101345.06;;;13.58;100.00
82262;BME280;71861;52.364;6.580;2024-02-15T15:45:11;101343.59;;;13.56;100.00
82262;BME280;71861;52.364;6.580;2024-02-15T15:47:38;101344.41;;;13.56;100.00
82262;BME280;71861;52.364;6.580;2024-02-15T15:50:05;101334.78;;;13.49;100.00
82262;BME280;71861;52.364;6.580;2024-02-15T15:52:32;101345.56;;;13.54;100.00
82262;BME280;71861;52.364;6.580;2024-02-15T15:54:58;101330.22;;;13.51;100.00
82262;BME280;71861;52.364;6.580;2024-02-15T15:57:23;101329.72;;;13.47;100.00
82262;BME280;71861;52.364;6.580;2024-02-15T15:59:50;101328.28;;;13.45;100.00
82262;BME280;71861;52.364;6.580;2024-02-15T16:02:16;101330.72;;;13.38;100.00
82262;BME280;71861;52.364;6.580;2024-02-15T16:04:45;101326.94;;;13.32;100.00
82262;BME280;71861;52.364;6.580;2024-02-15T16:07:12;101327.59;;;13.26;100.00
82262;BME280;71861;52.364;6.580;2024-02-15T16:09:38;101325.50;;;13.22;100.00
82262;BME280;71861;52.364;6.580;2024-02-15T16:12:07;101323.53;;;13.16;100.00
82262;BME280;71861;52.364;6.580;2024-02-15T16:14:33;101319.78;;;13.10;100.00
82262;BME280;71861;52.364;6.580;2024-02-15T16:17:04;101316.69;;;13.07;100.00
82262;BME280;71861;52.364;6.580;2024-02-15T16:19:30;101300.03;;;12.92;100.00
82262;BME280;71861;52.364;6.580;2024-02-15T16:21:57;101308.53;;;13.02;100.00
82262;BME280;71861;52.364;6.580;2024-02-15T16:24:24;101314.03;;;12.99;100.00
82262;BME280;71861;52.364;6.580;2024-02-15T16:26:50;101301.81;;;12.91;100.00
82262;BME280;71861;52.364;6.580;2024-02-15T16:29:16;101309.47;;;12.93;100.00
82262;BME280;71861;52.364;6.580;2024-02-15T16:31:41;101301.47;;;12.86;100.00
82262;BME280;71861;52.364;6.580;2024-02-15T16:34:07;101300.81;;;12.84;100.00
82262;BME280;71861;52.364;6.580;2024-02-15T16:36:32;101299.50;;;12.80;100.00
82262;BME280;71861;52.364;6.580;2024-02-15T16:38:57;101288.59;;;12.77;100.00
82262;BME280;71861;52.364;6.580;2024-02-15T16:41:24;101286.16;;;12.75;100.00
82262;BME280;71861;52.364;6.580;2024-02-15T16:43:52;101288.25;;;12.72;100.00
82262;BME280;71861;52.364;6.580;2024-02-15T16:46:22;101276.66;;;12.66;100.00
82262;BME280;71861;52.364;6.580;2024-02-15T16:48:49;101287.75;;;12.68;100.00
82262;BME280;71861;52.364;6.580;2024-02-15T16:51:14;101285.31;;;12.67;100.00
82262;BME280;71861;52.364;6.580;2024-02-15T16:53:40;101287.91;;;12.67;100.00
82262;BME280;71861;52.364;6.580;2024-02-15T16:56:06;101287.41;;;12.63;100.00